Goliah — WDD5908 — position and weather

sailwx.info

Track history (hours):
 
Tides and Currents Weather Stations Pressure Air Temp Water Temp Dewpoint Dewpoint Depression Visibility Wind Speed Wind Dir Waves Ship Positions

Goliah

Owner: Crowley Marine Services, Seattle, WA. More information available from US FCC via Universal Licensing System and Coast Guard Vessel Documentation Center.

Last reported at 2018-Jul-20 06:30 UTC. Time now 2018-Jul-20 06:48 UTC.
Position N 37°48' W 122°24'.

Length 33 m; draft 4.8 m.

Type: Tug. MMSI: 366898250.

Date/timePositionNaut miles runAvg speedWind from/ knotsBaromVisibWave heightAir tempDewpointWater temp
2018-Jul-20 06:30N 37°48' W 122°24'0 0.0
2018-Jul-20 06:00N 37°48' W 122°24'0 0.0
2018-Jul-20 05:30N 37°48' W 122°24'0 0.0
2018-Jul-20 05:00N 37°48' W 122°24'0 0.0
2018-Jul-20 04:30N 37°48' W 122°24'0 0.0
2018-Jul-20 04:00N 37°48' W 122°24'0 0.0
2018-Jul-20 03:30N 37°48' W 122°24'0 0.0
2018-Jul-20 03:00N 37°48' W 122°24'0 0.8
2018-Jul-20 02:30N 37°49' W 122°24'0 0.8
2018-Jul-20 02:00N 37°48' W 122°24'0 0.0
2018-Jul-20 01:30N 37°48' W 122°24'0 0.0
2018-Jul-20 01:00N 37°48' W 122°24'0 0.0
2018-Jul-20 00:30N 37°48' W 122°24'0 0.0
2018-Jul-20 00:00N 37°48' W 122°24'0 0.0
2018-Jul-19 23:30N 37°48' W 122°24'0 0.0
2018-Jul-19 23:00N 37°48' W 122°24'0 0.0
2018-Jul-19 22:30N 37°48' W 122°24'0 0.0
2018-Jul-19 22:00N 37°48' W 122°24'0 0.0
2018-Jul-19 21:30N 37°48' W 122°24'0 0.0
2018-Jul-19 21:00N 37°48' W 122°24'0 0.0
2018-Jul-19 20:30N 37°48' W 122°24'0 0.0
2018-Jul-19 20:00N 37°48' W 122°24'0 0.0
2018-Jul-19 19:30N 37°48' W 122°24'0 0.0
2018-Jul-19 19:00N 37°48' W 122°24'3 6.9
2018-Jul-19 18:31N 37°46' W 122°21'1 2.8
2018-Jul-19 18:00N 37°47' W 122°22'4 7.8
2018-Jul-19 17:30N 37°49' W 122°26'4 7.7
2018-Jul-19 17:00N 37°48' W 122°30'1 1.5
2018-Jul-19 16:31N 37°48' W 122°30'3 5.5
2018-Jul-19 16:00N 37°50' W 122°28'3 6.4
2018-Jul-19 15:30N 37°53' W 122°26'611.5
2018-Jul-19 15:00N 37°59' W 122°25'510.6
2018-Jul-19 14:30N 38°02' W 122°20'5 4.6
2018-Jul-19 13:30N 38°03' W 122°15'2 3.2
2018-Jul-19 13:00N 38°03' W 122°13'4 8.7
2018-Jul-19 12:30N 38°02' W 122°07'0 0.0
2018-Jul-19 12:00N 38°02' W 122°07'0 0.9
2018-Jul-19 11:30N 38°02' W 122°08'2 0.4
2018-Jul-19 06:07N 38°03' W 122°11'1 8.5
2018-Jul-19 06:00N 38°03' W 122°12'3 2.7
2018-Jul-19 04:47N 38°03' W 122°16'1 3.1
2018-Jul-19 04:30N 38°03' W 122°15'0 0.0
2018-Jul-19 04:00N 38°03' W 122°15'0 0.1
2018-Jul-19 03:30N 38°03' W 122°15'0 0.0
2018-Jul-19 03:00N 38°03' W 122°15'4 8.8
2018-Jul-19 02:30N 38°03' W 122°20'510.6
2018-Jul-19 02:01N 37°59' W 122°25'4 8.0
2018-Jul-19 01:31N 37°55' W 122°25'0 0.1
2018-Jul-19 01:00N 37°55' W 122°25'2 5.0
2018-Jul-19 00:30N 37°57' W 122°27'4 7.7
2018-Jul-18 23:59N 38°01' W 122°24'4 8.8
2018-Jul-18 23:30N 38°03' W 122°19'4 7.8
2018-Jul-18 23:00N 38°04' W 122°15'5 8.8
2018-Jul-18 22:28N 38°02' W 122°09'2 5.2
2018-Jul-18 22:00N 38°03' W 122°06'1 2.4
2018-Jul-18 21:25N 38°02' W 122°08'2 0.6
2018-Jul-18 17:52N 38°03' W 122°11'3 7.9
2018-Jul-18 17:26N 38°04' W 122°15'4 8.4
2018-Jul-18 16:58N 38°03' W 122°19'4 8.8
2018-Jul-18 16:29N 38°00' W 122°24'4 8.7
2018-Jul-18 16:00N 37°57' W 122°26'5 9.3
2018-Jul-18 15:31N 37°52' W 122°24'611.3
2018-Jul-18 15:01N 37°48' W 122°20'2 3.2
2018-Jul-18 14:30N 37°48' W 122°17'1 1.5
2018-Jul-18 13:31N 37°48' W 122°19'0 0.0
2018-Jul-18 13:00N 37°48' W 122°19'0 0.0
2018-Jul-18 12:30N 37°48' W 122°19'0 0.2
2018-Jul-18 12:01N 37°48' W 122°19'4 7.0
2018-Jul-18 11:31N 37°48' W 122°24'0 0.0
2018-Jul-18 10:30N 37°48' W 122°24'0 0.0
2018-Jul-18 10:00N 37°48' W 122°24'0 0.0
2018-Jul-18 09:31N 37°48' W 122°24'0 0.0
2018-Jul-18 09:01N 37°48' W 122°24'0 0.0
2018-Jul-18 08:31N 37°48' W 122°24'0 0.0
2018-Jul-18 08:01N 37°48' W 122°24'0 0.0
2018-Jul-18 07:30N 37°48' W 122°24'0 0.0
2018-Jul-18 07:01N 37°48' W 122°24'0 0.0
2018-Jul-18 06:31N 37°48' W 122°24'0 0.0
2018-Jul-18 06:01N 37°48' W 122°24'0 0.0
2018-Jul-18 05:31N 37°48' W 122°24'0 0.0
2018-Jul-18 05:01N 37°48' W 122°24'0 0.0
2018-Jul-18 04:31N 37°48' W 122°24'0 0.0
2018-Jul-18 04:01N 37°48' W 122°24'0 0.0
2018-Jul-18 03:31N 37°48' W 122°24'0 0.0
2018-Jul-18 03:00N 37°48' W 122°24'0 0.0
2018-Jul-18 02:31N 37°48' W 122°24'0 0.0
2018-Jul-18 02:01N 37°48' W 122°24'0 0.0
2018-Jul-18 01:31N 37°48' W 122°24'0 0.0
2018-Jul-18 01:01N 37°48' W 122°24'0 0.0
2018-Jul-18 00:31N 37°48' W 122°24'0 0.0
2018-Jul-18 00:01N 37°48' W 122°24'0 0.0
2018-Jul-17 23:30N 37°48' W 122°24'3 6.3
2018-Jul-17 23:01N 37°48' W 122°20'1 1.8
2018-Jul-17 22:31N 37°48' W 122°19'1 2.3
2018-Jul-17 22:00N 37°48' W 122°17'1 2.2
2018-Jul-17 21:30N 37°48' W 122°19'3 5.4
2018-Jul-17 21:01N 37°48' W 122°22'1 2.8
2018-Jul-17 20:31N 37°48' W 122°24'0 0.0
2018-Jul-17 20:01N 37°48' W 122°24'0 0.0
2018-Jul-17 19:30N 37°48' W 122°24'0 0.0
2018-Jul-17 19:01N 37°48' W 122°24'0 0.0
2018-Jul-17 18:31N 37°48' W 122°24'0 0.0
2018-Jul-17 18:00N 37°48' W 122°24'0 0.0
2018-Jul-17 17:31N 37°48' W 122°24'0 0.0
2018-Jul-17 17:01N 37°48' W 122°24'0 0.0
2018-Jul-17 16:31N 37°48' W 122°24'0 0.0
2018-Jul-17 16:01N 37°48' W 122°24'0 0.0
2018-Jul-17 15:30N 37°48' W 122°24'0 0.0
2018-Jul-17 15:01N 37°48' W 122°24'0 0.0
2018-Jul-17 14:30N 37°48' W 122°24'0 0.0
2018-Jul-17 14:01N 37°48' W 122°24'0 0.0
2018-Jul-17 13:31N 37°48' W 122°24'1 1.1
2018-Jul-17 13:00N 37°49' W 122°24'5 9.3
2018-Jul-17 12:31N 37°53' W 122°25'3 5.9
2018-Jul-17 12:00N 37°54' W 122°22'0 0.5
2018-Jul-17 11:31N 37°55' W 122°22'0 0.2
2018-Jul-17 11:01N 37°55' W 122°22'0 0.0
2018-Jul-17 10:30N 37°55' W 122°22'0 0.0
2018-Jul-17 10:00N 37°55' W 122°22'2 3.5
2018-Jul-17 09:30N 37°54' W 122°24'1 2.6
2018-Jul-17 09:00N 37°55' W 122°25'0 0.3
2018-Jul-17 08:31N 37°56' W 122°25'1 1.7
2018-Jul-17 08:01N 37°55' W 122°25'510.1
2018-Jul-17 07:30N 37°50' W 122°24'2 3.3
2018-Jul-17 07:00N 37°48' W 122°24'0 0.0
2018-Jul-17 06:31N 37°48' W 122°24'0 0.0
2018-Jul-17 06:01N 37°48' W 122°24'0 0.0
2018-Jul-17 05:30N 37°48' W 122°24'0 0.0
2018-Jul-17 05:01N 37°48' W 122°24'0 0.0
2018-Jul-17 04:30N 37°48' W 122°24'0 0.0
2018-Jul-17 04:01N 37°48' W 122°24'0 0.0
2018-Jul-17 03:30N 37°48' W 122°24'0 0.0
2018-Jul-17 03:00N 37°48' W 122°24'0 0.0
2018-Jul-17 02:31N 37°48' W 122°24'0 0.0
2018-Jul-17 02:01N 37°48' W 122°24'0 0.0
2018-Jul-17 01:30N 37°48' W 122°24'0 0.0
2018-Jul-17 01:00N 37°48' W 122°24'0 0.0
2018-Jul-17 00:31N 37°48' W 122°24'0 0.0
2018-Jul-16 23:31N 37°48' W 122°24'2 3.1
2018-Jul-16 23:01N 37°49' W 122°26'4 8.6
2018-Jul-16 22:31N 37°49' W 122°31'1 1.8
2018-Jul-16 22:00N 37°49' W 122°30'4 8.1
2018-Jul-16 21:31N 37°51' W 122°25'4 7.8
2018-Jul-16 21:00N 37°55' W 122°27'4 8.0
2018-Jul-16 20:30N 37°59' W 122°26'4 7.9
2018-Jul-16 20:00N 38°02' W 122°23'4 8.8
2018-Jul-16 19:30N 38°03' W 122°18'2 2.7
2018-Jul-16 18:56N 38°03' W 122°16'0 0.2
2018-Jul-16 18:30N 38°03' W 122°16'3 5.7
2018-Jul-16 18:01N 38°03' W 122°19'4 8.5
2018-Jul-16 17:30N 38°00' W 122°24'5 9.5
2018-Jul-16 17:01N 37°56' W 122°26'510.2
2018-Jul-16 16:30N 37°51' W 122°25'3 5.7
2018-Jul-16 16:01N 37°48' W 122°24'0 0.0
2018-Jul-16 15:31N 37°48' W 122°24'0 0.0
2018-Jul-16 15:00N 37°48' W 122°24'0 0.0
2018-Jul-16 14:31N 37°48' W 122°24'0 0.0
2018-Jul-16 14:01N 37°48' W 122°24'0 0.0
2018-Jul-16 13:31N 37°48' W 122°24'2 4.8
2018-Jul-16 13:01N 37°51' W 122°24'510.0
2018-Jul-16 12:31N 37°56' W 122°25'0 0.0
2018-Jul-16 12:01N 37°56' W 122°25'0 0.9
2018-Jul-16 11:31N 37°55' W 122°25'1 2.3
2018-Jul-16 11:00N 37°55' W 122°24'2 4.1
2018-Jul-16 10:31N 37°55' W 122°22'0 0.0
2018-Jul-16 10:00N 37°55' W 122°22'0 0.0
2018-Jul-16 09:31N 37°55' W 122°22'0 0.0
2018-Jul-16 09:00N 37°55' W 122°22'0 0.0
2018-Jul-16 08:31N 37°55' W 122°22'0 0.2
2018-Jul-16 08:01N 37°55' W 122°22'0 0.0
2018-Jul-16 07:30N 37°55' W 122°22'1 1.2
2018-Jul-16 07:01N 37°54' W 122°22'3 5.7
2018-Jul-16 06:30N 37°55' W 122°25'4 8.4
2018-Jul-16 06:00N 37°51' W 122°24'5 9.6
2018-Jul-16 05:31N 37°49' W 122°30'1 1.9
2018-Jul-16 05:01N 37°48' W 122°30'1 2.7
2018-Jul-16 04:30N 37°49' W 122°29'4 8.0
2018-Jul-16 04:01N 37°48' W 122°24'0 0.0
2018-Jul-16 03:31N 37°48' W 122°24'0 0.0
2018-Jul-16 03:01N 37°48' W 122°24'0 0.0
2018-Jul-16 02:31N 37°48' W 122°24'0 0.0
2018-Jul-16 02:01N 37°48' W 122°24'0 0.0
2018-Jul-16 01:31N 37°48' W 122°24'0 0.0
2018-Jul-16 01:01N 37°48' W 122°24'0 0.0
2018-Jul-16 00:31N 37°48' W 122°24'3 5.6
2018-Jul-16 00:01N 37°49' W 122°20'1 1.4
2018-Jul-15 23:30N 37°49' W 122°20'2 3.8
2018-Jul-15 23:01N 37°48' W 122°22'2 3.3
2018-Jul-15 22:31N 37°48' W 122°24'0 0.1
2018-Jul-15 22:01N 37°48' W 122°24'0 0.0
2018-Jul-15 21:31N 37°48' W 122°24'3 6.6
2018-Jul-15 21:00N 37°51' W 122°25'4 7.6
2018-Jul-15 20:30N 37°55' W 122°25'0 0.1
2018-Jul-15 20:01N 37°55' W 122°25'1 1.0
2018-Jul-15 19:31N 37°55' W 122°25'5 9.4
2018-Jul-15 19:01N 37°51' W 122°24'4 8.4
2018-Jul-15 18:30N 37°47' W 122°21'1 2.4
2018-Jul-15 18:01N 37°46' W 122°21'0 0.3
2018-Jul-15 17:31N 37°46' W 122°21'3 6.2
2018-Jul-15 17:01N 37°48' W 122°24'0 0.0
2018-Jul-15 16:31N 37°48' W 122°24'0 0.0
2018-Jul-15 16:01N 37°48' W 122°24'0 0.0
2018-Jul-15 15:31N 37°48' W 122°24'0 0.0
2018-Jul-15 15:01N 37°48' W 122°24'0 0.0
2018-Jul-15 14:30N 37°48' W 122°24'0 0.1
2018-Jul-15 14:01N 37°48' W 122°24'510.2
2018-Jul-15 13:31N 37°48' W 122°17'1 1.2
2018-Jul-15 13:01N 37°48' W 122°18'1 1.4
2018-Jul-15 12:30N 37°48' W 122°19'0 0.5
2018-Jul-15 12:01N 37°48' W 122°19'2 4.6
2018-Jul-15 11:31N 37°48' W 122°22'1 1.1
2018-Jul-15 11:01N 37°49' W 122°23'2 3.4
2018-Jul-15 10:31N 37°48' W 122°20'0 0.1
2018-Jul-15 10:00N 37°48' W 122°20'1 1.2
2018-Jul-15 09:31N 37°48' W 122°21'2 4.5
2018-Jul-15 09:01N 37°48' W 122°24'0 0.0
2018-Jul-15 08:30N 37°48' W 122°24'0 0.0
2018-Jul-15 08:01N 37°48' W 122°24'0 0.0
2018-Jul-15 07:31N 37°48' W 122°24'0 0.0
2018-Jul-15 07:01N 37°48' W 122°24'0 0.0
2018-Jul-15 06:31N 37°48' W 122°24'0 0.0
2018-Jul-15 06:00N 37°48' W 122°24'0 0.0
2018-Jul-15 05:30N 37°48' W 122°24'0 0.0
2018-Jul-15 05:01N 37°48' W 122°24'0 0.0
2018-Jul-15 04:31N 37°48' W 122°24'0 0.0
2018-Jul-15 04:00N 37°48' W 122°24'0 0.0
2018-Jul-15 03:31N 37°48' W 122°24'0 0.0
2018-Jul-15 03:01N 37°48' W 122°24'0 0.0
2018-Jul-15 02:31N 37°48' W 122°24'0 0.0
2018-Jul-15 02:01N 37°48' W 122°24'0 0.0
2018-Jul-15 01:30N 37°48' W 122°24'0 0.0
2018-Jul-15 01:01N 37°48' W 122°24'0 0.0
2018-Jul-15 00:31N 37°48' W 122°24'0 0.0
2018-Jul-15 00:01N 37°48' W 122°24'2 4.8
2018-Jul-14 23:30N 37°51' W 122°24'5 9.2
2018-Jul-14 23:01N 37°55' W 122°25'1 1.2
2018-Jul-14 22:30N 37°55' W 122°25'0 0.2
2018-Jul-14 22:01N 37°55' W 122°25'0 0.0
2018-Jul-14 21:31N 37°55' W 122°25'0 0.0
2018-Jul-14 21:01N 37°55' W 122°25'0 0.8
2018-Jul-14 20:31N 37°56' W 122°25'0 0.8
2018-Jul-14 20:00N 37°55' W 122°25'2 3.9
2018-Jul-14 19:31N 37°53' W 122°25'5 9.1
2018-Jul-14 19:01N 37°49' W 122°24'1 1.6
2018-Jul-14 18:31N 37°48' W 122°24'0 0.0
2018-Jul-14 18:01N 37°48' W 122°24'0 0.0
2018-Jul-14 17:31N 37°48' W 122°24'0 0.0
2018-Jul-14 17:01N 37°48' W 122°24'0 0.0
2018-Jul-14 16:31N 37°48' W 122°24'0 0.0
2018-Jul-14 16:00N 37°48' W 122°24'3 5.5
2018-Jul-14 15:30N 37°48' W 122°20'0 0.6
2018-Jul-14 15:01N 37°48' W 122°21'2 2.5
2018-Jul-14 14:01N 37°48' W 122°24'1 1.7
2018-Jul-14 13:30N 37°49' W 122°25'2 3.5
2018-Jul-14 13:00N 37°49' W 122°27'0 0.7
2018-Jul-14 12:31N 37°49' W 122°27'2 4.4
2018-Jul-14 12:01N 37°49' W 122°24'3 5.3
2018-Jul-14 11:31N 37°48' W 122°21'2 3.3
2018-Jul-14 11:01N 37°48' W 122°19'0 0.6
2018-Jul-14 10:31N 37°48' W 122°18'1 1.0
2018-Jul-14 10:01N 37°48' W 122°18'2 4.4
2018-Jul-14 09:31N 37°48' W 122°20'2 3.8
2018-Jul-14 09:01N 37°48' W 122°23'1 1.9
2018-Jul-14 08:30N 37°48' W 122°24'0 0.0
2018-Jul-14 08:00N 37°48' W 122°24'0 0.0
2018-Jul-14 07:30N 37°48' W 122°24'0 0.0
2018-Jul-14 07:01N 37°48' W 122°24'0 0.0
2018-Jul-14 06:31N 37°48' W 122°24'0 0.0
2018-Jul-14 06:01N 37°48' W 122°24'0 0.0
2018-Jul-14 05:31N 37°48' W 122°24'0 0.0
2018-Jul-14 05:01N 37°48' W 122°24'0 0.0
2018-Jul-14 04:31N 37°48' W 122°24'4 7.7
2018-Jul-14 04:00N 37°52' W 122°24'3 6.8
2018-Jul-14 03:31N 37°55' W 122°25'0 0.7
2018-Jul-14 03:00N 37°55' W 122°25'2 4.9
2018-Jul-14 02:30N 37°54' W 122°22'0 0.5
2018-Jul-14 02:01N 37°55' W 122°22'0 0.2
2018-Jul-14 01:31N 37°55' W 122°22'0 0.0
2018-Jul-14 01:01N 37°55' W 122°22'3 5.5
2018-Jul-14 00:31N 37°54' W 122°25'5 9.6
2018-Jul-14 00:00N 37°50' W 122°22'3 5.7
2018-Jul-13 23:31N 37°48' W 122°19'1 1.5
2018-Jul-13 23:01N 37°48' W 122°18'1 1.2
2018-Jul-13 22:31N 37°48' W 122°18'2 3.7
2018-Jul-13 22:00N 37°48' W 122°20'2 4.6
2018-Jul-13 21:30N 37°48' W 122°23'1 1.6
2018-Jul-13 21:00N 37°48' W 122°24'0 0.0
2018-Jul-13 20:31N 37°48' W 122°24'0 0.0
2018-Jul-13 20:00N 37°48' W 122°24'0 0.0
2018-Jul-13 19:31N 37°48' W 122°24'0 0.0
2018-Jul-13 19:00N 37°48' W 122°24'0 0.0
2018-Jul-13 18:31N 37°48' W 122°24'0 0.0
2018-Jul-13 18:01N 37°48' W 122°24'0 0.0
2018-Jul-13 17:31N 37°48' W 122°24'0 0.0
2018-Jul-13 17:00N 37°48' W 122°24'0 0.0
2018-Jul-13 16:30N 37°48' W 122°24'0 0.0
2018-Jul-13 16:00N 37°48' W 122°24'0 0.0
2018-Jul-13 15:31N 37°48' W 122°24'0 0.0
2018-Jul-13 15:01N 37°48' W 122°24'0 0.0
2018-Jul-13 14:01N 37°48' W 122°24'0 0.0
2018-Jul-13 13:31N 37°48' W 122°24'0 0.0
2018-Jul-13 13:01N 37°48' W 122°24'0 0.0
2018-Jul-13 12:30N 37°48' W 122°24'0 0.0
2018-Jul-13 12:01N 37°48' W 122°24'0 0.6
2018-Jul-13 11:31N 37°48' W 122°24'5 9.6
2018-Jul-13 11:01N 37°53' W 122°25'3 6.3
2018-Jul-13 10:31N 37°55' W 122°22'0 0.7
2018-Jul-13 10:01N 37°55' W 122°22'0 0.6
2018-Jul-13 09:31N 37°55' W 122°22'0 0.5
2018-Jul-13 09:01N 37°55' W 122°22'0 0.0
2018-Jul-13 08:30N 37°55' W 122°22'0 0.0
2018-Jul-13 08:00N 37°55' W 122°22'1 1.4
2018-Jul-13 07:31N 37°54' W 122°22'2 4.9
2018-Jul-13 07:01N 37°55' W 122°25'0 0.8
2018-Jul-13 06:30N 37°55' W 122°25'2 4.8
2018-Jul-13 06:00N 37°54' W 122°22'1 1.3
2018-Jul-13 05:31N 37°55' W 122°22'3 5.1
2018-Jul-13 05:00N 37°54' W 122°25'510.6
2018-Jul-13 04:30N 37°49' W 122°24'1 2.0
2018-Jul-13 04:01N 37°48' W 122°24'0 0.0
2018-Jul-13 03:31N 37°48' W 122°24'0 0.0
2018-Jul-13 03:01N 37°48' W 122°24'0 0.0
2018-Jul-13 02:31N 37°48' W 122°24'0 0.0
2018-Jul-13 02:01N 37°48' W 122°24'0 0.0
2018-Jul-13 01:30N 37°48' W 122°24'0 0.0
2018-Jul-13 01:01N 37°48' W 122°24'0 0.0
2018-Jul-13 00:31N 37°48' W 122°24'0 0.0
2018-Jul-13 00:00N 37°48' W 122°24'4 7.1
2018-Jul-12 23:31N 37°49' W 122°28'2 4.3
2018-Jul-12 23:01N 37°48' W 122°31'5 9.4
2018-Jul-12 22:31N 37°51' W 122°26'510.6
2018-Jul-12 22:01N 37°46' W 122°21'1 2.8
2018-Jul-12 21:31N 37°47' W 122°23'1 2.6
2018-Jul-12 21:01N 37°48' W 122°24'0 0.0
2018-Jul-12 20:30N 37°48' W 122°24'0 0.0
2018-Jul-12 20:01N 37°48' W 122°24'5 9.5
2018-Jul-12 19:31N 37°53' W 122°25'3 6.3
2018-Jul-12 19:00N 37°55' W 122°22'0 0.2
2018-Jul-12 18:31N 37°55' W 122°22'1 2.6
2018-Jul-12 18:01N 37°54' W 122°23'2 3.6
2018-Jul-12 17:31N 37°53' W 122°25'4 8.9
2018-Jul-12 17:01N 37°49' W 122°28'2 3.5
2018-Jul-12 16:30N 37°48' W 122°30'0 0.3
2018-Jul-12 16:00N 37°48' W 122°30'4 8.0
2018-Jul-12 15:30N 37°49' W 122°25'5 9.6
2018-Jul-12 15:00N 37°48' W 122°19'0 0.3
2018-Jul-12 14:30N 37°48' W 122°19'0 0.9
2018-Jul-12 14:00N 37°48' W 122°18'1 1.3
2018-Jul-12 13:30N 37°48' W 122°17'1 3.0
2018-Jul-12 13:00N 37°48' W 122°19'3 5.1
2018-Jul-12 12:30N 37°48' W 122°22'1 2.6
2018-Jul-12 12:00N 37°48' W 122°24'0 0.0
2018-Jul-12 11:27N 37°48' W 122°24'0 0.1
2018-Jul-12 11:00N 37°48' W 122°24'0 0.0
2018-Jul-12 10:30N 37°48' W 122°24'0 0.0
2018-Jul-12 10:00N 37°48' W 122°24'0 0.0
2018-Jul-12 09:30N 37°48' W 122°24'0 0.0
2018-Jul-12 09:00N 37°48' W 122°24'0 0.0
2018-Jul-12 08:30N 37°48' W 122°24'0 0.0
2018-Jul-12 08:00N 37°48' W 122°24'0 0.0
2018-Jul-12 07:30N 37°48' W 122°24'5 9.5
2018-Jul-12 07:00N 37°53' W 122°25'2 3.3
2018-Jul-12 06:30N 37°54' W 122°24'2 3.7
2018-Jul-12 06:00N 37°55' W 122°22'0 0.9
2018-Jul-12 05:30N 37°55' W 122°22'0 0.9
2018-Jul-12 05:00N 37°55' W 122°22'0 0.4
2018-Jul-12 04:30N 37°55' W 122°22'0 0.0
2018-Jul-12 04:00N 37°55' W 122°22'0 0.0
2018-Jul-12 03:30N 37°55' W 122°22'0 0.0
2018-Jul-12 03:00N 37°55' W 122°22'0 0.0
2018-Jul-12 02:30N 37°55' W 122°22'0 0.0
2018-Jul-12 02:00N 37°55' W 122°22'0 0.0
2018-Jul-12 01:30N 37°55' W 122°22'0 0.4
2018-Jul-12 01:00N 37°55' W 122°22'0 0.0
2018-Jul-12 00:30N 37°55' W 122°22'0 0.0
2018-Jul-12 00:00N 37°55' W 122°22'3 5.3
2018-Jul-11 23:30N 37°56' W 122°25'5 9.7
2018-Jul-11 23:00N 38°00' W 122°24'5 9.9
2018-Jul-11 22:30N 38°03' W 122°19'5 9.3
2018-Jul-11 22:00N 38°04' W 122°13'4 1.6
2018-Jul-11 19:31N 38°02' W 122°08'0 4.8
2018-Jul-11 19:30N 38°02' W 122°08'2 3.4
2018-Jul-11 18:59N 38°02' W 122°10'3 6.8
2018-Jul-11 18:30N 38°04' W 122°14'3 5.2
2018-Jul-11 18:00N 38°04' W 122°17'2 2.9
2018-Jul-11 17:28N 38°03' W 122°19'611.0
2018-Jul-11 16:56N 37°59' W 122°25'511.7
2018-Jul-11 16:30N 37°54' W 122°25'510.0
2018-Jul-11 16:00N 37°49' W 122°24'1 2.2
2018-Jul-11 15:30N 37°48' W 122°24'0 0.0
2018-Jul-11 15:00N 37°48' W 122°24'0 0.0
2018-Jul-11 14:30N 37°48' W 122°24'0 0.0
2018-Jul-11 14:00N 37°48' W 122°24'0 0.0
2018-Jul-11 13:30N 37°48' W 122°24'0 0.0
2018-Jul-11 13:00N 37°48' W 122°24'0 0.0
2018-Jul-11 12:30N 37°48' W 122°24'0 0.0
2018-Jul-11 12:00N 37°48' W 122°24'0 0.0
2018-Jul-11 11:30N 37°48' W 122°24'0 0.0
2018-Jul-11 11:00N 37°48' W 122°24'0 0.0
2018-Jul-11 10:30N 37°48' W 122°24'0 0.0
2018-Jul-11 10:00N 37°48' W 122°24'0 0.0
2018-Jul-11 09:30N 37°48' W 122°24'0 0.0
2018-Jul-11 09:00N 37°48' W 122°24'0 0.0
2018-Jul-11 08:29N 37°48' W 122°24'0 0.0
2018-Jul-11 08:00N 37°48' W 122°24'0 0.0
2018-Jul-11 07:30N 37°48' W 122°24'0 0.0
2018-Jul-11 07:00N 37°48' W 122°24'0 0.0
2018-Jul-11 06:30N 37°48' W 122°24'0 0.0
2018-Jul-11 06:00N 37°48' W 122°24'0 0.0
2018-Jul-11 05:30N 37°48' W 122°24'0 0.0
2018-Jul-11 05:00N 37°48' W 122°24'0 0.0
2018-Jul-11 04:30N 37°48' W 122°24'0 0.0
2018-Jul-11 04:00N 37°48' W 122°24'0 0.0
2018-Jul-11 03:30N 37°48' W 122°24'0 0.0
2018-Jul-11 03:00N 37°48' W 122°24'0 0.0
2018-Jul-11 02:30N 37°48' W 122°24'0 0.0
2018-Jul-11 02:00N 37°48' W 122°24'2 3.9
2018-Jul-11 01:30N 37°48' W 122°21'2 3.0
2018-Jul-11 01:00N 37°48' W 122°20'1 2.1
2018-Jul-11 00:30N 37°48' W 122°21'0 0.2
2018-Jul-11 00:00N 37°48' W 122°20'0 0.8
2018-Jul-10 23:30N 37°49' W 122°20'0 0.0
2018-Jul-10 23:00N 37°49' W 122°20'0 0.2
2018-Jul-10 22:30N 37°49' W 122°20'1 2.2
2018-Jul-10 22:01N 37°48' W 122°19'0 0.1
2018-Jul-10 21:30N 37°48' W 122°19'2 4.3
2018-Jul-10 21:00N 37°48' W 122°22'2 3.3
2018-Jul-10 20:30N 37°48' W 122°24'0 0.0
2018-Jul-10 20:00N 37°48' W 122°24'4 8.9
2018-Jul-10 19:30N 37°53' W 122°25'3 5.9
2018-Jul-10 19:00N 37°56' W 122°25'0 0.0
2018-Jul-10 18:31N 37°56' W 122°25'0 0.3
2018-Jul-10 18:00N 37°55' W 122°25'2 3.6
2018-Jul-10 17:31N 37°54' W 122°25'4 8.4
2018-Jul-10 17:00N 37°50' W 122°28'5 9.1
2018-Jul-10 16:30N 37°54' W 122°25'1 2.5
2018-Jul-10 16:00N 37°55' W 122°25'0 0.0
2018-Jul-10 15:30N 37°55' W 122°25'0 0.0
2018-Jul-10 15:00N 37°55' W 122°25'0 0.0
2018-Jul-10 14:30N 37°55' W 122°25'0 0.0
2018-Jul-10 14:00N 37°55' W 122°25'0 0.0
2018-Jul-10 13:30N 37°55' W 122°25'0 0.0
2018-Jul-10 13:00N 37°55' W 122°25'0 0.0
2018-Jul-10 12:30N 37°55' W 122°25'0 0.0
2018-Jul-10 12:01N 37°55' W 122°25'0 0.0
2018-Jul-10 11:30N 37°55' W 122°25'0 0.0
2018-Jul-10 11:00N 37°55' W 122°25'4 8.2
2018-Jul-10 10:30N 37°59' W 122°25'612.3
2018-Jul-10 10:00N 38°03' W 122°19'3 6.5
2018-Jul-10 09:30N 38°04' W 122°15'0 0.0
2018-Jul-10 09:00N 38°04' W 122°15'1 1.2
2018-Jul-10 08:30N 38°04' W 122°14'4 8.8
2018-Jul-10 08:00N 38°02' W 122°09'2 2.5
2018-Jul-10 07:13N 38°03' W 122°06'1 3.1
2018-Jul-10 06:59N 38°02' W 122°07'  
Track history (hours):
 
Tides and Currents Weather Stations Pressure Air Temp Water Temp Dewpoint Dewpoint Depression Visibility Wind Speed Wind Dir Waves Ship Positions

Goliah

Owner: Crowley Marine Services, Seattle, WA. More information available from US FCC via Universal Licensing System and Coast Guard Vessel Documentation Center.

Last reported at 2018-Jul-20 06:30 UTC. Time now 2018-Jul-20 06:48 UTC.
Position N 37°48' W 122°24'.

Length 33 m; draft 4.8 m.

Type: Tug. MMSI: 366898250.

Date/timePositionNaut miles runAvg speedWind from/ knotsBaromVisibWave heightAir tempDewpointWater temp
2018-Jul-20 06:30N 37°48' W 122°24'0 0.0
2018-Jul-20 06:00N 37°48' W 122°24'0 0.0
2018-Jul-20 05:30N 37°48' W 122°24'0 0.0
2018-Jul-20 05:00N 37°48' W 122°24'0 0.0
2018-Jul-20 04:30N 37°48' W 122°24'0 0.0
2018-Jul-20 04:00N 37°48' W 122°24'0 0.0
2018-Jul-20 03:30N 37°48' W 122°24'0 0.0
2018-Jul-20 03:00N 37°48' W 122°24'0 0.8
2018-Jul-20 02:30N 37°49' W 122°24'0 0.8
2018-Jul-20 02:00N 37°48' W 122°24'0 0.0
2018-Jul-20 01:30N 37°48' W 122°24'0 0.0
2018-Jul-20 01:00N 37°48' W 122°24'0 0.0
2018-Jul-20 00:30N 37°48' W 122°24'0 0.0
2018-Jul-20 00:00N 37°48' W 122°24'0 0.0
2018-Jul-19 23:30N 37°48' W 122°24'0 0.0
2018-Jul-19 23:00N 37°48' W 122°24'0 0.0
2018-Jul-19 22:30N 37°48' W 122°24'0 0.0
2018-Jul-19 22:00N 37°48' W 122°24'0 0.0
2018-Jul-19 21:30N 37°48' W 122°24'0 0.0
2018-Jul-19 21:00N 37°48' W 122°24'0 0.0
2018-Jul-19 20:30N 37°48' W 122°24'0 0.0
2018-Jul-19 20:00N 37°48' W 122°24'0 0.0
2018-Jul-19 19:30N 37°48' W 122°24'0 0.0
2018-Jul-19 19:00N 37°48' W 122°24'3 6.9
2018-Jul-19 18:31N 37°46' W 122°21'1 2.8
2018-Jul-19 18:00N 37°47' W 122°22'4 7.8
2018-Jul-19 17:30N 37°49' W 122°26'4 7.7
2018-Jul-19 17:00N 37°48' W 122°30'1 1.5
2018-Jul-19 16:31N 37°48' W 122°30'3 5.5
2018-Jul-19 16:00N 37°50' W 122°28'3 6.4
2018-Jul-19 15:30N 37°53' W 122°26'611.5
2018-Jul-19 15:00N 37°59' W 122°25'510.6
2018-Jul-19 14:30N 38°02' W 122°20'5 4.6
2018-Jul-19 13:30N 38°03' W 122°15'2 3.2
2018-Jul-19 13:00N 38°03' W 122°13'4 8.7
2018-Jul-19 12:30N 38°02' W 122°07'0 0.0
2018-Jul-19 12:00N 38°02' W 122°07'0 0.9
2018-Jul-19 11:30N 38°02' W 122°08'2 0.4
2018-Jul-19 06:07N 38°03' W 122°11'1 8.5
2018-Jul-19 06:00N 38°03' W 122°12'3 2.7
2018-Jul-19 04:47N 38°03' W 122°16'1 3.1
2018-Jul-19 04:30N 38°03' W 122°15'0 0.0
2018-Jul-19 04:00N 38°03' W 122°15'0 0.1
2018-Jul-19 03:30N 38°03' W 122°15'0 0.0
2018-Jul-19 03:00N 38°03' W 122°15'4 8.8
2018-Jul-19 02:30N 38°03' W 122°20'510.6
2018-Jul-19 02:01N 37°59' W 122°25'4 8.0
2018-Jul-19 01:31N 37°55' W 122°25'0 0.1
2018-Jul-19 01:00N 37°55' W 122°25'2 5.0
2018-Jul-19 00:30N 37°57' W 122°27'4 7.7
2018-Jul-18 23:59N 38°01' W 122°24'4 8.8
2018-Jul-18 23:30N 38°03' W 122°19'4 7.8
2018-Jul-18 23:00N 38°04' W 122°15'5 8.8
2018-Jul-18 22:28N 38°02' W 122°09'2 5.2
2018-Jul-18 22:00N 38°03' W 122°06'1 2.4
2018-Jul-18 21:25N 38°02' W 122°08'2 0.6
2018-Jul-18 17:52N 38°03' W 122°11'3 7.9
2018-Jul-18 17:26N 38°04' W 122°15'4 8.4
2018-Jul-18 16:58N 38°03' W 122°19'4 8.8
2018-Jul-18 16:29N 38°00' W 122°24'4 8.7
2018-Jul-18 16:00N 37°57' W 122°26'5 9.3
2018-Jul-18 15:31N 37°52' W 122°24'611.3
2018-Jul-18 15:01N 37°48' W 122°20'2 3.2
2018-Jul-18 14:30N 37°48' W 122°17'1 1.5
2018-Jul-18 13:31N 37°48' W 122°19'0 0.0
2018-Jul-18 13:00N 37°48' W 122°19'0 0.0
2018-Jul-18 12:30N 37°48' W 122°19'0 0.2
2018-Jul-18 12:01N 37°48' W 122°19'4 7.0
2018-Jul-18 11:31N 37°48' W 122°24'0 0.0
2018-Jul-18 10:30N 37°48' W 122°24'0 0.0
2018-Jul-18 10:00N 37°48' W 122°24'0 0.0
2018-Jul-18 09:31N 37°48' W 122°24'0 0.0
2018-Jul-18 09:01N 37°48' W 122°24'0 0.0
2018-Jul-18 08:31N 37°48' W 122°24'0 0.0
2018-Jul-18 08:01N 37°48' W 122°24'0 0.0
2018-Jul-18 07:30N 37°48' W 122°24'0 0.0
2018-Jul-18 07:01N 37°48' W 122°24'0 0.0
2018-Jul-18 06:31N 37°48' W 122°24'0 0.0
2018-Jul-18 06:01N 37°48' W 122°24'0 0.0
2018-Jul-18 05:31N 37°48' W 122°24'0 0.0
2018-Jul-18 05:01N 37°48' W 122°24'0 0.0
2018-Jul-18 04:31N 37°48' W 122°24'0 0.0
2018-Jul-18 04:01N 37°48' W 122°24'0 0.0
2018-Jul-18 03:31N 37°48' W 122°24'0 0.0
2018-Jul-18 03:00N 37°48' W 122°24'0 0.0
2018-Jul-18 02:31N 37°48' W 122°24'0 0.0
2018-Jul-18 02:01N 37°48' W 122°24'0 0.0
2018-Jul-18 01:31N 37°48' W 122°24'0 0.0
2018-Jul-18 01:01N 37°48' W 122°24'0 0.0
2018-Jul-18 00:31N 37°48' W 122°24'0 0.0
2018-Jul-18 00:01N 37°48' W 122°24'0 0.0
2018-Jul-17 23:30N 37°48' W 122°24'3 6.3
2018-Jul-17 23:01N 37°48' W 122°20'1 1.8
2018-Jul-17 22:31N 37°48' W 122°19'1 2.3
2018-Jul-17 22:00N 37°48' W 122°17'1 2.2
2018-Jul-17 21:30N 37°48' W 122°19'3 5.4
2018-Jul-17 21:01N 37°48' W 122°22'1 2.8
2018-Jul-17 20:31N 37°48' W 122°24'0 0.0
2018-Jul-17 20:01N 37°48' W 122°24'0 0.0
2018-Jul-17 19:30N 37°48' W 122°24'0 0.0
2018-Jul-17 19:01N 37°48' W 122°24'0 0.0
2018-Jul-17 18:31N 37°48' W 122°24'0 0.0
2018-Jul-17 18:00N 37°48' W 122°24'0 0.0
2018-Jul-17 17:31N 37°48' W 122°24'0 0.0
2018-Jul-17 17:01N 37°48' W 122°24'0 0.0
2018-Jul-17 16:31N 37°48' W 122°24'0 0.0
2018-Jul-17 16:01N 37°48' W 122°24'0 0.0
2018-Jul-17 15:30N 37°48' W 122°24'0 0.0
2018-Jul-17 15:01N 37°48' W 122°24'0 0.0
2018-Jul-17 14:30N 37°48' W 122°24'0 0.0
2018-Jul-17 14:01N 37°48' W 122°24'0 0.0
2018-Jul-17 13:31N 37°48' W 122°24'1 1.1
2018-Jul-17 13:00N 37°49' W 122°24'5 9.3
2018-Jul-17 12:31N 37°53' W 122°25'3 5.9
2018-Jul-17 12:00N 37°54' W 122°22'0 0.5
2018-Jul-17 11:31N 37°55' W 122°22'0 0.2
2018-Jul-17 11:01N 37°55' W 122°22'0 0.0
2018-Jul-17 10:30N 37°55' W 122°22'0 0.0
2018-Jul-17 10:00N 37°55' W 122°22'2 3.5
2018-Jul-17 09:30N 37°54' W 122°24'1 2.6
2018-Jul-17 09:00N 37°55' W 122°25'0 0.3
2018-Jul-17 08:31N 37°56' W 122°25'1 1.7
2018-Jul-17 08:01N 37°55' W 122°25'510.1
2018-Jul-17 07:30N 37°50' W 122°24'2 3.3
2018-Jul-17 07:00N 37°48' W 122°24'0 0.0
2018-Jul-17 06:31N 37°48' W 122°24'0 0.0
2018-Jul-17 06:01N 37°48' W 122°24'0 0.0
2018-Jul-17 05:30N 37°48' W 122°24'0 0.0
2018-Jul-17 05:01N 37°48' W 122°24'0 0.0
2018-Jul-17 04:30N 37°48' W 122°24'0 0.0
2018-Jul-17 04:01N 37°48' W 122°24'0 0.0
2018-Jul-17 03:30N 37°48' W 122°24'0 0.0
2018-Jul-17 03:00N 37°48' W 122°24'0 0.0
2018-Jul-17 02:31N 37°48' W 122°24'0 0.0
2018-Jul-17 02:01N 37°48' W 122°24'0 0.0
2018-Jul-17 01:30N 37°48' W 122°24'0 0.0
2018-Jul-17 01:00N 37°48' W 122°24'0 0.0
2018-Jul-17 00:31N 37°48' W 122°24'0 0.0
2018-Jul-16 23:31N 37°48' W 122°24'2 3.1
2018-Jul-16 23:01N 37°49' W 122°26'4 8.6
2018-Jul-16 22:31N 37°49' W 122°31'1 1.8
2018-Jul-16 22:00N 37°49' W 122°30'4 8.1
2018-Jul-16 21:31N 37°51' W 122°25'4 7.8
2018-Jul-16 21:00N 37°55' W 122°27'4 8.0
2018-Jul-16 20:30N 37°59' W 122°26'4 7.9
2018-Jul-16 20:00N 38°02' W 122°23'4 8.8
2018-Jul-16 19:30N 38°03' W 122°18'2 2.7
2018-Jul-16 18:56N 38°03' W 122°16'0 0.2
2018-Jul-16 18:30N 38°03' W 122°16'3 5.7
2018-Jul-16 18:01N 38°03' W 122°19'4 8.5
2018-Jul-16 17:30N 38°00' W 122°24'5 9.5
2018-Jul-16 17:01N 37°56' W 122°26'510.2
2018-Jul-16 16:30N 37°51' W 122°25'3 5.7
2018-Jul-16 16:01N 37°48' W 122°24'0 0.0
2018-Jul-16 15:31N 37°48' W 122°24'0 0.0
2018-Jul-16 15:00N 37°48' W 122°24'0 0.0
2018-Jul-16 14:31N 37°48' W 122°24'0 0.0
2018-Jul-16 14:01N 37°48' W 122°24'0 0.0
2018-Jul-16 13:31N 37°48' W 122°24'2 4.8
2018-Jul-16 13:01N 37°51' W 122°24'510.0
2018-Jul-16 12:31N 37°56' W 122°25'0 0.0
2018-Jul-16 12:01N 37°56' W 122°25'0 0.9
2018-Jul-16 11:31N 37°55' W 122°25'1 2.3
2018-Jul-16 11:00N 37°55' W 122°24'2 4.1
2018-Jul-16 10:31N 37°55' W 122°22'0 0.0
2018-Jul-16 10:00N 37°55' W 122°22'0 0.0
2018-Jul-16 09:31N 37°55' W 122°22'0 0.0
2018-Jul-16 09:00N 37°55' W 122°22'0 0.0
2018-Jul-16 08:31N 37°55' W 122°22'0 0.2
2018-Jul-16 08:01N 37°55' W 122°22'0 0.0
2018-Jul-16 07:30N 37°55' W 122°22'1 1.2
2018-Jul-16 07:01N 37°54' W 122°22'3 5.7
2018-Jul-16 06:30N 37°55' W 122°25'4 8.4
2018-Jul-16 06:00N 37°51' W 122°24'5 9.6
2018-Jul-16 05:31N 37°49' W 122°30'1 1.9
2018-Jul-16 05:01N 37°48' W 122°30'1 2.7
2018-Jul-16 04:30N 37°49' W 122°29'4 8.0
2018-Jul-16 04:01N 37°48' W 122°24'0 0.0
2018-Jul-16 03:31N 37°48' W 122°24'0 0.0
2018-Jul-16 03:01N 37°48' W 122°24'0 0.0
2018-Jul-16 02:31N 37°48' W 122°24'0 0.0
2018-Jul-16 02:01N 37°48' W 122°24'0 0.0
2018-Jul-16 01:31N 37°48' W 122°24'0 0.0
2018-Jul-16 01:01N 37°48' W 122°24'0 0.0
2018-Jul-16 00:31N 37°48' W 122°24'3 5.6
2018-Jul-16 00:01N 37°49' W 122°20'1 1.4
2018-Jul-15 23:30N 37°49' W 122°20'2 3.8
2018-Jul-15 23:01N 37°48' W 122°22'2 3.3
2018-Jul-15 22:31N 37°48' W 122°24'0 0.1
2018-Jul-15 22:01N 37°48' W 122°24'0 0.0
2018-Jul-15 21:31N 37°48' W 122°24'3 6.6
2018-Jul-15 21:00N 37°51' W 122°25'4 7.6
2018-Jul-15 20:30N 37°55' W 122°25'0 0.1
2018-Jul-15 20:01N 37°55' W 122°25'1 1.0
2018-Jul-15 19:31N 37°55' W 122°25'5 9.4
2018-Jul-15 19:01N 37°51' W 122°24'4 8.4
2018-Jul-15 18:30N 37°47' W 122°21'1 2.4
2018-Jul-15 18:01N 37°46' W 122°21'0 0.3
2018-Jul-15 17:31N 37°46' W 122°21'3 6.2
2018-Jul-15 17:01N 37°48' W 122°24'0 0.0
2018-Jul-15 16:31N 37°48' W 122°24'0 0.0
2018-Jul-15 16:01N 37°48' W 122°24'0 0.0
2018-Jul-15 15:31N 37°48' W 122°24'0 0.0
2018-Jul-15 15:01N 37°48' W 122°24'0 0.0
2018-Jul-15 14:30N 37°48' W 122°24'0 0.1
2018-Jul-15 14:01N 37°48' W 122°24'510.2
2018-Jul-15 13:31N 37°48' W 122°17'1 1.2
2018-Jul-15 13:01N 37°48' W 122°18'1 1.4
2018-Jul-15 12:30N 37°48' W 122°19'0 0.5
2018-Jul-15 12:01N 37°48' W 122°19'2 4.6
2018-Jul-15 11:31N 37°48' W 122°22'1 1.1
2018-Jul-15 11:01N 37°49' W 122°23'2 3.4
2018-Jul-15 10:31N 37°48' W 122°20'0 0.1
2018-Jul-15 10:00N 37°48' W 122°20'1 1.2
2018-Jul-15 09:31N 37°48' W 122°21'2 4.5
2018-Jul-15 09:01N 37°48' W 122°24'0 0.0
2018-Jul-15 08:30N 37°48' W 122°24'0 0.0
2018-Jul-15 08:01N 37°48' W 122°24'0 0.0
2018-Jul-15 07:31N 37°48' W 122°24'0 0.0
2018-Jul-15 07:01N 37°48' W 122°24'0 0.0
2018-Jul-15 06:31N 37°48' W 122°24'0 0.0
2018-Jul-15 06:00N 37°48' W 122°24'0 0.0
2018-Jul-15 05:30N 37°48' W 122°24'0 0.0
2018-Jul-15 05:01N 37°48' W 122°24'0 0.0
2018-Jul-15 04:31N 37°48' W 122°24'0 0.0
2018-Jul-15 04:00N 37°48' W 122°24'0 0.0
2018-Jul-15 03:31N 37°48' W 122°24'0 0.0
2018-Jul-15 03:01N 37°48' W 122°24'0 0.0
2018-Jul-15 02:31N 37°48' W 122°24'0 0.0
2018-Jul-15 02:01N 37°48' W 122°24'0 0.0
2018-Jul-15 01:30N 37°48' W 122°24'0 0.0
2018-Jul-15 01:01N 37°48' W 122°24'0 0.0
2018-Jul-15 00:31N 37°48' W 122°24'0 0.0
2018-Jul-15 00:01N 37°48' W 122°24'2 4.8
2018-Jul-14 23:30N 37°51' W 122°24'5 9.2
2018-Jul-14 23:01N 37°55' W 122°25'1 1.2
2018-Jul-14 22:30N 37°55' W 122°25'0 0.2
2018-Jul-14 22:01N 37°55' W 122°25'0 0.0
2018-Jul-14 21:31N 37°55' W 122°25'0 0.0
2018-Jul-14 21:01N 37°55' W 122°25'0 0.8
2018-Jul-14 20:31N 37°56' W 122°25'0 0.8
2018-Jul-14 20:00N 37°55' W 122°25'2 3.9
2018-Jul-14 19:31N 37°53' W 122°25'5 9.1
2018-Jul-14 19:01N 37°49' W 122°24'1 1.6
2018-Jul-14 18:31N 37°48' W 122°24'0 0.0
2018-Jul-14 18:01N 37°48' W 122°24'0 0.0
2018-Jul-14 17:31N 37°48' W 122°24'0 0.0
2018-Jul-14 17:01N 37°48' W 122°24'0 0.0
2018-Jul-14 16:31N 37°48' W 122°24'0 0.0
2018-Jul-14 16:00N 37°48' W 122°24'3 5.5
2018-Jul-14 15:30N 37°48' W 122°20'0 0.6
2018-Jul-14 15:01N 37°48' W 122°21'2 2.5
2018-Jul-14 14:01N 37°48' W 122°24'1 1.7
2018-Jul-14 13:30N 37°49' W 122°25'2 3.5
2018-Jul-14 13:00N 37°49' W 122°27'0 0.7
2018-Jul-14 12:31N 37°49' W 122°27'2 4.4
2018-Jul-14 12:01N 37°49' W 122°24'3 5.3
2018-Jul-14 11:31N 37°48' W 122°21'2 3.3
2018-Jul-14 11:01N 37°48' W 122°19'0 0.6
2018-Jul-14 10:31N 37°48' W 122°18'1 1.0
2018-Jul-14 10:01N 37°48' W 122°18'2 4.4
2018-Jul-14 09:31N 37°48' W 122°20'2 3.8
2018-Jul-14 09:01N 37°48' W 122°23'1 1.9
2018-Jul-14 08:30N 37°48' W 122°24'0 0.0
2018-Jul-14 08:00N 37°48' W 122°24'0 0.0
2018-Jul-14 07:30N 37°48' W 122°24'0 0.0
2018-Jul-14 07:01N 37°48' W 122°24'0 0.0
2018-Jul-14 06:31N 37°48' W 122°24'0 0.0
2018-Jul-14 06:01N 37°48' W 122°24'0 0.0
2018-Jul-14 05:31N 37°48' W 122°24'0 0.0
2018-Jul-14 05:01N 37°48' W 122°24'0 0.0
2018-Jul-14 04:31N 37°48' W 122°24'4 7.7
2018-Jul-14 04:00N 37°52' W 122°24'3 6.8
2018-Jul-14 03:31N 37°55' W 122°25'0 0.7
2018-Jul-14 03:00N 37°55' W 122°25'2 4.9
2018-Jul-14 02:30N 37°54' W 122°22'0 0.5
2018-Jul-14 02:01N 37°55' W 122°22'0 0.2
2018-Jul-14 01:31N 37°55' W 122°22'0 0.0
2018-Jul-14 01:01N 37°55' W 122°22'3 5.5
2018-Jul-14 00:31N 37°54' W 122°25'5 9.6
2018-Jul-14 00:00N 37°50' W 122°22'3 5.7
2018-Jul-13 23:31N 37°48' W 122°19'1 1.5
2018-Jul-13 23:01N 37°48' W 122°18'1 1.2
2018-Jul-13 22:31N 37°48' W 122°18'2 3.7
2018-Jul-13 22:00N 37°48' W 122°20'2 4.6
2018-Jul-13 21:30N 37°48' W 122°23'1 1.6
2018-Jul-13 21:00N 37°48' W 122°24'0 0.0
2018-Jul-13 20:31N 37°48' W 122°24'0 0.0
2018-Jul-13 20:00N 37°48' W 122°24'0 0.0
2018-Jul-13 19:31N 37°48' W 122°24'0 0.0
2018-Jul-13 19:00N 37°48' W 122°24'0 0.0
2018-Jul-13 18:31N 37°48' W 122°24'0 0.0
2018-Jul-13 18:01N 37°48' W 122°24'0 0.0
2018-Jul-13 17:31N 37°48' W 122°24'0 0.0
2018-Jul-13 17:00N 37°48' W 122°24'0 0.0
2018-Jul-13 16:30N 37°48' W 122°24'0 0.0
2018-Jul-13 16:00N 37°48' W 122°24'0 0.0
2018-Jul-13 15:31N 37°48' W 122°24'0 0.0
2018-Jul-13 15:01N 37°48' W 122°24'0 0.0
2018-Jul-13 14:01N 37°48' W 122°24'0 0.0
2018-Jul-13 13:31N 37°48' W 122°24'0 0.0
2018-Jul-13 13:01N 37°48' W 122°24'0 0.0
2018-Jul-13 12:30N 37°48' W 122°24'0 0.0
2018-Jul-13 12:01N 37°48' W 122°24'0 0.6
2018-Jul-13 11:31N 37°48' W 122°24'5 9.6
2018-Jul-13 11:01N 37°53' W 122°25'3 6.3
2018-Jul-13 10:31N 37°55' W 122°22'0 0.7
2018-Jul-13 10:01N 37°55' W 122°22'0 0.6
2018-Jul-13 09:31N 37°55' W 122°22'0 0.5
2018-Jul-13 09:01N 37°55' W 122°22'0 0.0
2018-Jul-13 08:30N 37°55' W 122°22'0 0.0
2018-Jul-13 08:00N 37°55' W 122°22'1 1.4
2018-Jul-13 07:31N 37°54' W 122°22'2 4.9
2018-Jul-13 07:01N 37°55' W 122°25'0 0.8
2018-Jul-13 06:30N 37°55' W 122°25'2 4.8
2018-Jul-13 06:00N 37°54' W 122°22'1 1.3
2018-Jul-13 05:31N 37°55' W 122°22'3 5.1
2018-Jul-13 05:00N 37°54' W 122°25'510.6
2018-Jul-13 04:30N 37°49' W 122°24'1 2.0
2018-Jul-13 04:01N 37°48' W 122°24'0 0.0
2018-Jul-13 03:31N 37°48' W 122°24'0 0.0
2018-Jul-13 03:01N 37°48' W 122°24'0 0.0
2018-Jul-13 02:31N 37°48' W 122°24'0 0.0
2018-Jul-13 02:01N 37°48' W 122°24'0 0.0
2018-Jul-13 01:30N 37°48' W 122°24'0 0.0
2018-Jul-13 01:01N 37°48' W 122°24'0 0.0
2018-Jul-13 00:31N 37°48' W 122°24'0 0.0
2018-Jul-13 00:00N 37°48' W 122°24'4 7.1
2018-Jul-12 23:31N 37°49' W 122°28'2 4.3
2018-Jul-12 23:01N 37°48' W 122°31'5 9.4
2018-Jul-12 22:31N 37°51' W 122°26'510.6
2018-Jul-12 22:01N 37°46' W 122°21'1 2.8
2018-Jul-12 21:31N 37°47' W 122°23'1 2.6
2018-Jul-12 21:01N 37°48' W 122°24'0 0.0
2018-Jul-12 20:30N 37°48' W 122°24'0 0.0
2018-Jul-12 20:01N 37°48' W 122°24'5 9.5
2018-Jul-12 19:31N 37°53' W 122°25'3 6.3
2018-Jul-12 19:00N 37°55' W 122°22'0 0.2
2018-Jul-12 18:31N 37°55' W 122°22'1 2.6
2018-Jul-12 18:01N 37°54' W 122°23'2 3.6
2018-Jul-12 17:31N 37°53' W 122°25'4 8.9
2018-Jul-12 17:01N 37°49' W 122°28'2 3.5
2018-Jul-12 16:30N 37°48' W 122°30'0 0.3
2018-Jul-12 16:00N 37°48' W 122°30'4 8.0
2018-Jul-12 15:30N 37°49' W 122°25'5 9.6
2018-Jul-12 15:00N 37°48' W 122°19'0 0.3
2018-Jul-12 14:30N 37°48' W 122°19'0 0.9
2018-Jul-12 14:00N 37°48' W 122°18'1 1.3
2018-Jul-12 13:30N 37°48' W 122°17'1 3.0
2018-Jul-12 13:00N 37°48' W 122°19'3 5.1
2018-Jul-12 12:30N 37°48' W 122°22'1 2.6
2018-Jul-12 12:00N 37°48' W 122°24'0 0.0
2018-Jul-12 11:27N 37°48' W 122°24'0 0.1
2018-Jul-12 11:00N 37°48' W 122°24'0 0.0
2018-Jul-12 10:30N 37°48' W 122°24'0 0.0
2018-Jul-12 10:00N 37°48' W 122°24'0 0.0
2018-Jul-12 09:30N 37°48' W 122°24'0 0.0
2018-Jul-12 09:00N 37°48' W 122°24'0 0.0
2018-Jul-12 08:30N 37°48' W 122°24'0 0.0
2018-Jul-12 08:00N 37°48' W 122°24'0 0.0
2018-Jul-12 07:30N 37°48' W 122°24'5 9.5
2018-Jul-12 07:00N 37°53' W 122°25'2 3.3
2018-Jul-12 06:30N 37°54' W 122°24'2 3.7
2018-Jul-12 06:00N 37°55' W 122°22'0 0.9
2018-Jul-12 05:30N 37°55' W 122°22'0 0.9
2018-Jul-12 05:00N 37°55' W 122°22'0 0.4
2018-Jul-12 04:30N 37°55' W 122°22'0 0.0
2018-Jul-12 04:00N 37°55' W 122°22'0 0.0
2018-Jul-12 03:30N 37°55' W 122°22'0 0.0
2018-Jul-12 03:00N 37°55' W 122°22'0 0.0
2018-Jul-12 02:30N 37°55' W 122°22'0 0.0
2018-Jul-12 02:00N 37°55' W 122°22'0 0.0
2018-Jul-12 01:30N 37°55' W 122°22'0 0.4
2018-Jul-12 01:00N 37°55' W 122°22'0 0.0
2018-Jul-12 00:30N 37°55' W 122°22'0 0.0
2018-Jul-12 00:00N 37°55' W 122°22'3 5.3
2018-Jul-11 23:30N 37°56' W 122°25'5 9.7
2018-Jul-11 23:00N 38°00' W 122°24'5 9.9
2018-Jul-11 22:30N 38°03' W 122°19'5 9.3
2018-Jul-11 22:00N 38°04' W 122°13'4 1.6
2018-Jul-11 19:31N 38°02' W 122°08'0 4.8
2018-Jul-11 19:30N 38°02' W 122°08'2 3.4
2018-Jul-11 18:59N 38°02' W 122°10'3 6.8
2018-Jul-11 18:30N 38°04' W 122°14'3 5.2
2018-Jul-11 18:00N 38°04' W 122°17'2 2.9
2018-Jul-11 17:28N 38°03' W 122°19'611.0
2018-Jul-11 16:56N 37°59' W 122°25'511.7
2018-Jul-11 16:30N 37°54' W 122°25'510.0
2018-Jul-11 16:00N 37°49' W 122°24'1 2.2
2018-Jul-11 15:30N 37°48' W 122°24'0 0.0
2018-Jul-11 15:00N 37°48' W 122°24'0 0.0
2018-Jul-11 14:30N 37°48' W 122°24'0 0.0
2018-Jul-11 14:00N 37°48' W 122°24'0 0.0
2018-Jul-11 13:30N 37°48' W 122°24'0 0.0
2018-Jul-11 13:00N 37°48' W 122°24'0 0.0
2018-Jul-11 12:30N 37°48' W 122°24'0 0.0
2018-Jul-11 12:00N 37°48' W 122°24'0 0.0
2018-Jul-11 11:30N 37°48' W 122°24'0 0.0
2018-Jul-11 11:00N 37°48' W 122°24'0 0.0
2018-Jul-11 10:30N 37°48' W 122°24'0 0.0
2018-Jul-11 10:00N 37°48' W 122°24'0 0.0
2018-Jul-11 09:30N 37°48' W 122°24'0 0.0
2018-Jul-11 09:00N 37°48' W 122°24'0 0.0
2018-Jul-11 08:29N 37°48' W 122°24'0 0.0
2018-Jul-11 08:00N 37°48' W 122°24'0 0.0
2018-Jul-11 07:30N 37°48' W 122°24'0 0.0
2018-Jul-11 07:00N 37°48' W 122°24'0 0.0
2018-Jul-11 06:30N 37°48' W 122°24'0 0.0
2018-Jul-11 06:00N 37°48' W 122°24'0 0.0
2018-Jul-11 05:30N 37°48' W 122°24'0 0.0
2018-Jul-11 05:00N 37°48' W 122°24'0 0.0
2018-Jul-11 04:30N 37°48' W 122°24'0 0.0
2018-Jul-11 04:00N 37°48' W 122°24'0 0.0
2018-Jul-11 03:30N 37°48' W 122°24'0 0.0
2018-Jul-11 03:00N 37°48' W 122°24'0 0.0
2018-Jul-11 02:30N 37°48' W 122°24'0 0.0
2018-Jul-11 02:00N 37°48' W 122°24'2 3.9
2018-Jul-11 01:30N 37°48' W 122°21'2 3.0
2018-Jul-11 01:00N 37°48' W 122°20'1 2.1
2018-Jul-11 00:30N 37°48' W 122°21'0 0.2
2018-Jul-11 00:00N 37°48' W 122°20'0 0.8
2018-Jul-10 23:30N 37°49' W 122°20'0 0.0
2018-Jul-10 23:00N 37°49' W 122°20'0 0.2
2018-Jul-10 22:30N 37°49' W 122°20'1 2.2
2018-Jul-10 22:01N 37°48' W 122°19'0 0.1
2018-Jul-10 21:30N 37°48' W 122°19'2 4.3
2018-Jul-10 21:00N 37°48' W 122°22'2 3.3
2018-Jul-10 20:30N 37°48' W 122°24'0 0.0
2018-Jul-10 20:00N 37°48' W 122°24'4 8.9
2018-Jul-10 19:30N 37°53' W 122°25'3 5.9
2018-Jul-10 19:00N 37°56' W 122°25'0 0.0
2018-Jul-10 18:31N 37°56' W 122°25'0 0.3
2018-Jul-10 18:00N 37°55' W 122°25'2 3.6
2018-Jul-10 17:31N 37°54' W 122°25'4 8.4
2018-Jul-10 17:00N 37°50' W 122°28'5 9.1
2018-Jul-10 16:30N 37°54' W 122°25'1 2.5
2018-Jul-10 16:00N 37°55' W 122°25'0 0.0
2018-Jul-10 15:30N 37°55' W 122°25'0 0.0
2018-Jul-10 15:00N 37°55' W 122°25'0 0.0
2018-Jul-10 14:30N 37°55' W 122°25'0 0.0
2018-Jul-10 14:00N 37°55' W 122°25'0 0.0
2018-Jul-10 13:30N 37°55' W 122°25'0 0.0
2018-Jul-10 13:00N 37°55' W 122°25'0 0.0
2018-Jul-10 12:30N 37°55' W 122°25'0 0.0
2018-Jul-10 12:01N 37°55' W 122°25'0 0.0
2018-Jul-10 11:30N 37°55' W 122°25'0 0.0
2018-Jul-10 11:00N 37°55' W 122°25'4 8.2
2018-Jul-10 10:30N 37°59' W 122°25'612.3
2018-Jul-10 10:00N 38°03' W 122°19'3 6.5
2018-Jul-10 09:30N 38°04' W 122°15'0 0.0
2018-Jul-10 09:00N 38°04' W 122°15'1 1.2
2018-Jul-10 08:30N 38°04' W 122°14'4 8.8
2018-Jul-10 08:00N 38°02' W 122°09'2 2.5
2018-Jul-10 07:13N 38°03' W 122°06'1 3.1
2018-Jul-10 06:59N 38°02' W 122°07'  

Dump ship's entire track history